Omaha, NE (68118)

6:56 PM CST on December 04, 2016 (GMT -0600)
Bent Creek | | Change Station

Elev 1171 ft 41.27 °N, 96.17 °W | Updated 6 minutes ago

Clear
Clear
32.2 °F
Feels Like 32 °F
N
2.2
Wind Variable Wind from SSE

Today
High -- | Low -- °F
--% Chance of Precip.
Yesterday
High -- | Low -- °F
Precip. -- in
Pressure 29.92 in
Visibility 10.0 miles
Clouds Clear
Windchill 32 °F
Dew Point 30 °F
Humidity 92%
Rainfall 0.38 in
Snow Depth Not available.
7:34 AM 4:55 PM
Waxing Crescent, 27% visible
METAR KMLE 050035Z AUTO 17003KT 10SM CLR 02/00 A2992 RMK AO2 T00151001
Pressure 29.92 in
Visibility 10.0 miles
Clouds Clear
Windchill 32 °F
Dew Point 30 °F
Humidity 92%
Rainfall 0.38 in
Snow Depth Not available.
7:34 AM 4:55 PM
Waxing Crescent, 27% visible
METAR KMLE 050035Z AUTO 17003KT 10SM CLR 02/00 A2992 RMK AO2 T00151001

10-Day Weather Forecast

Almanac

Astronomy

Dec. 04, 2016 Rise Set
Actual Time
Civil Twilight
Nautical Twilight
Astronomical Twilight
Moon
Length of Visible Light
Length of Day
Tomorrow will be .
, % of the Moon is Illuminated

Today's Extremes

State Highs State Lows

Community

WunderPhotos

Upload Photos

1,955,703 photos uploaded!

WunderBlog® & News

Nearby

Air Quality

  Air Quality AQ Index Pollutant
Not available.

Snow Depth

Station Depth Elevation

Earthquake Activity

City Distance Mag. Time & Date
Minimum magnitude displayed is 2.5.

Coastal Water Temperatures

Place Temperature

Stations

Nearby Weather Stations

Station Location Temp. Windchill Dew Point Humidity Wind Precip. Elev Updated Type
                   

Watches & Warnings

There are currently no watches in effect.